Time;durP1;ratioP1;P1;durP2;ratioP2;P2;SDS_P1;SDS_P2;PMS_P1;PMS_P2;Temp;Humidity;BMP_temperature;BMP_pressure;BME280_temperature;BME280_humidity;BME280_pressure;Samples;Min_cycle;Max_cycle;Signal;HPM_P1;HPM_P2
2022/01/29 00:02:04;;;;;;;783.40;370.85;;;;;;;;;;4929659;28;20039;-78
2022/01/29 00:04:31;;;;;;;782.42;365.70;;;;;;;;;;4942275;28;20052;-77
2022/01/29 00:06:56;;;;;;;781.35;365.58;;;;;;;;;;4948988;28;20135;-77
2022/01/29 00:09:22;;;;;;;783.40;371.27;;;;;;;;;;4981822;28;20178;-77
2022/01/29 00:11:48;;;;;;;787.35;376.88;;;;;;;;;;4932821;28;20028;-78
2022/01/29 00:14:15;;;;;;;784.25;375.42;;;;;;;;;;5023697;28;20072;-76
2022/01/29 00:16:41;;;;;;;784.25;370.70;;;;;;;;;;5008075;28;20111;-77
2022/01/29 00:19:07;;;;;;;782.72;369.73;;;;;;;;;;5008088;28;20049;-77
2022/01/29 00:21:52;;;;;;;781.38;363.58;;;;;;;;;;5008716;28;20021;-77
2022/01/29 00:24:18;;;;;;;777.90;355.60;;;;;;;;;;5026040;28;20037;-78
2022/01/29 00:26:45;;;;;;;779.28;358.58;;;;;;;;;;5027470;28;20064;-77
2022/01/29 00:29:20;;;;;;;776.00;359.05;;;;;;;;;;5024557;28;20103;-78
2022/01/29 00:31:46;;;;;;;781.15;359.10;;;;;;;;;;5039888;28;20029;-77
2022/01/29 00:34:12;;;;;;;776.38;356.67;;;;;;;;;;5022978;28;20559;-77
2022/01/29 00:36:38;;;;;;;779.67;360.20;;;;;;;;;;5020727;28;20128;-78
2022/01/29 00:39:04;;;;;;;775.65;354.52;;;;;;;;;;5024446;28;20045;-77
2022/01/29 00:41:30;;;;;;;779.83;353.98;;;;;;;;;;5043008;28;20033;-78
2022/01/29 00:43:58;;;;;;;777.35;359.65;;;;;;;;;;5023798;28;20124;-78
2022/01/29 00:46:24;;;;;;;779.30;362.02;;;;;;;;;;4976959;28;20040;-78
2022/01/29 00:48:57;;;;;;;780.08;362.00;;;;;;;;;;4975709;28;20506;-78
2022/01/29 00:51:28;;;;;;;774.70;356.70;;;;;;;;;;4985262;28;20035;-77
2022/01/29 00:53:54;;;;;;;781.20;352.27;;;;;;;;;;4974700;28;20060;-78
2022/01/29 00:56:21;;;;;;;777.75;358.48;;;;;;;;;;4962314;28;20059;-78
2022/01/29 00:58:47;;;;;;;776.17;354.63;;;;;;;;;;4984701;28;20035;-77
2022/01/29 01:01:13;;;;;;;775.58;357.15;;;;;;;;;;4973727;28;20030;-78
2022/01/29 01:03:40;;;;;;;776.63;358.42;;;;;;;;;;4993425;28;20043;-77
2022/01/29 01:06:06;;;;;;;777.90;357.08;;;;;;;;;;4954124;28;20098;-77
2022/01/29 01:08:32;;;;;;;776.55;355.70;;;;;;;;;;4962818;28;20023;-77
2022/01/29 01:10:58;;;;;;;780.22;358.73;;;;;;;;;;4957732;28;20062;-78
2022/01/29 01:13:26;;;;;;;779.47;356.08;;;;;;;;;;4975659;28;20040;-77
2022/01/29 01:15:59;;;;;;;779.25;358.25;;;;;;;;;;4977361;28;20036;-76
2022/01/29 01:18:25;;;;;;;779.00;356.67;;;;;;;;;;4990103;28;20057;-77
2022/01/29 01:20:51;;;;;;;778.20;358.98;;;;;;;;;;4954481;28;20507;-77
2022/01/29 01:23:18;;;;;;;779.65;358.50;;;;;;;;;;4974404;28;20047;-77
2022/01/29 01:25:43;;;;;;;781.00;358.70;;;;;;;;;;4958881;28;20644;-78
2022/01/29 01:28:10;;;;;;;779.08;361.50;;;;;;;;;;4974333;28;20129;-77
2022/01/29 01:30:36;;;;;;;775.97;355.90;;;;;;;;;;4994382;28;20050;-77
2022/01/29 01:33:04;;;;;;;779.15;354.20;;;;;;;;;;4967005;28;20033;-77
2022/01/29 01:35:46;;;;;;;775.55;355.55;;;;;;;;;;4979119;28;20512;-76
2022/01/29 01:38:26;;;;;;;776.25;352.40;;;;;;;;;;4955549;28;20063;-76
2022/01/29 01:40:57;;;;;;;781.60;356.65;;;;;;;;;;4946887;28;20040;-77
2022/01/29 01:43:29;;;;;;;777.60;357.75;;;;;;;;;;4960083;28;20023;-77
2022/01/29 01:45:55;;;;;;;781.75;362.92;;;;;;;;;;4981148;28;20517;-77
2022/01/29 01:48:21;;;;;;;785.45;361.52;;;;;;;;;;4955688;28;20047;-78
2022/01/29 01:50:48;;;;;;;782.20;369.15;;;;;;;;;;4957002;28;20051;-77
2022/01/29 01:53:14;;;;;;;783.10;366.33;;;;;;;;;;4992862;28;20037;-76
2022/01/29 01:55:41;;;;;;;788.40;378.55;;;;;;;;;;4964888;28;20400;-78
2022/01/29 01:58:07;;;;;;;780.55;358.85;;;;;;;;;;4975070;28;20271;-78
2022/01/29 02:00:34;;;;;;;781.92;367.63;;;;;;;;;;4971095;28;20039;-78
2022/01/29 02:03:00;;;;;;;782.85;363.85;;;;;;;;;;4970450;28;20045;-77
2022/01/29 02:05:26;;;;;;;781.10;368.42;;;;;;;;;;4974305;28;20046;-77
2022/01/29 02:07:53;;;;;;;784.40;370.75;;;;;;;;;;4973641;28;20061;-78
2022/01/29 02:10:20;;;;;;;782.35;371.38;;;;;;;;;;4975267;28;20050;-78
2022/01/29 02:12:56;;;;;;;781.85;364.50;;;;;;;;;;4984664;28;20071;-77
2022/01/29 02:15:24;;;;;;;782.50;367.92;;;;;;;;;;4945097;28;20466;-77
2022/01/29 02:17:51;;;;;;;781.38;363.42;;;;;;;;;;4970579;28;20035;-77
2022/01/29 02:20:36;;;;;;;783.63;363.55;;;;;;;;;;4958559;28;20043;-78
2022/01/29 02:23:03;;;;;;;789.05;373.83;;;;;;;;;;4971426;28;20059;-77
2022/01/29 02:25:33;;;;;;;784.22;367.63;;;;;;;;;;4969986;28;20070;-77
2022/01/29 02:28:00;;;;;;;784.40;366.77;;;;;;;;;;4984727;28;20035;-77
2022/01/29 02:30:29;;;;;;;787.97;379.88;;;;;;;;;;4971990;28;20032;-77
2022/01/29 02:32:57;;;;;;;786.95;370.38;;;;;;;;;;4949691;28;20392;-77
2022/01/29 02:35:23;;;;;;;784.03;370.38;;;;;;;;;;4989968;28;20023;-75
2022/01/29 02:37:51;;;;;;;784.55;368.38;;;;;;;;;;4973984;28;20029;-78
2022/01/29 02:40:18;;;;;;;783.50;368.60;;;;;;;;;;4980184;28;20336;-77
2022/01/29 02:42:44;;;;;;;788.08;380.75;;;;;;;;;;4936528;28;20055;-76
2022/01/29 02:45:10;;;;;;;787.85;373.73;;;;;;;;;;4934100;28;20274;-78
2022/01/29 02:47:38;;;;;;;785.30;381.63;;;;;;;;;;4933878;28;20058;-78
2022/01/29 02:50:04;;;;;;;788.08;375.85;;;;;;;;;;4895827;29;20064;-76
2022/01/29 02:52:32;;;;;;;786.40;375.60;;;;;;;;;;4976928;28;20053;-76
2022/01/29 02:54:59;;;;;;;790.05;384.40;;;;;;;;;;4976672;28;20406;-77
2022/01/29 02:57:29;;;;;;;789.35;380.13;;;;;;;;;;4976620;28;20083;-78
2022/01/29 03:00:00;;;;;;;787.45;378.30;;;;;;;;;;4992927;28;20061;-77
2022/01/29 03:02:31;;;;;;;787.90;378.92;;;;;;;;;;4988949;28;20470;-78
2022/01/29 03:04:57;;;;;;;786.50;372.95;;;;;;;;;;4988084;28;20042;-78
2022/01/29 03:07:24;;;;;;;789.75;385.80;;;;;;;;;;4983697;28;20230;-78
2022/01/29 03:09:58;;;;;;;789.65;382.95;;;;;;;;;;4986567;28;20387;-77
2022/01/29 03:12:24;;;;;;;785.80;376.92;;;;;;;;;;4990211;28;20386;-77
2022/01/29 03:14:54;;;;;;;787.15;379.33;;;;;;;;;;5025520;28;20070;-77
2022/01/29 03:17:21;;;;;;;788.17;387.08;;;;;;;;;;5010898;28;20034;-76
2022/01/29 03:19:46;;;;;;;788.38;386.70;;;;;;;;;;5028004;28;20053;-77
2022/01/29 03:22:13;;;;;;;793.45;386.20;;;;;;;;;;5029503;28;20030;-77
2022/01/29 03:24:39;;;;;;;789.40;389.00;;;;;;;;;;5009697;28;20615;-77
2022/01/29 03:27:05;;;;;;;788.97;388.58;;;;;;;;;;5005696;28;20029;-78
2022/01/29 03:29:31;;;;;;;789.17;385.33;;;;;;;;;;5010702;28;20048;-76
2022/01/29 03:31:57;;;;;;;788.80;389.45;;;;;;;;;;4961225;28;20124;-77
2022/01/29 03:34:23;;;;;;;790.63;390.83;;;;;;;;;;4966941;28;20067;-76
2022/01/29 03:36:49;;;;;;;791.03;390.83;;;;;;;;;;4991682;28;20027;-77
2022/01/29 03:39:15;;;;;;;789.90;386.73;;;;;;;;;;4963765;28;20031;-76
2022/01/29 03:41:42;;;;;;;793.22;391.73;;;;;;;;;;4956903;28;20039;-78
2022/01/29 03:44:10;;;;;;;789.35;393.80;;;;;;;;;;4971862;28;20036;-77
2022/01/29 03:46:37;;;;;;;792.63;392.02;;;;;;;;;;4980426;28;20097;-77
2022/01/29 03:49:03;;;;;;;794.13;392.45;;;;;;;;;;4973015;28;20031;-77
2022/01/29 03:51:29;;;;;;;792.78;401.33;;;;;;;;;;4985693;28;20033;-76
2022/01/29 03:53:54;;;;;;;794.10;389.30;;;;;;;;;;4979507;28;20038;-77
2022/01/29 03:56:20;;;;;;;792.97;396.63;;;;;;;;;;4969998;28;20028;-77
2022/01/29 03:58:47;;;;;;;793.08;403.95;;;;;;;;;;4973028;28;20194;-77
2022/01/29 04:01:14;;;;;;;791.75;397.02;;;;;;;;;;4967093;28;20043;-78
2022/01/29 04:03:41;;;;;;;795.53;403.67;;;;;;;;;;4953480;28;20449;-77
2022/01/29 04:06:07;;;;;;;791.92;396.92;;;;;;;;;;4962324;28;20028;-77
2022/01/29 04:08:40;;;;;;;794.83;405.05;;;;;;;;;;4985956;28;20109;-78
2022/01/29 04:11:11;;;;;;;794.75;396.88;;;;;;;;;;4956333;28;20035;-78
2022/01/29 04:13:40;;;;;;;793.85;404.77;;;;;;;;;;4953794;28;20539;-77
2022/01/29 04:16:06;;;;;;;793.80;402.67;;;;;;;;;;4963864;28;20042;-77
2022/01/29 04:18:32;;;;;;;797.85;407.00;;;;;;;;;;4961765;28;20063;-77
2022/01/29 04:20:58;;;;;;;794.58;407.85;;;;;;;;;;4946881;28;20069;-77
2022/01/29 04:23:30;;;;;;;797.85;409.13;;;;;;;;;;4964054;28;20063;-77
2022/01/29 04:26:03;;;;;;;795.38;400.55;;;;;;;;;;4954690;28;20490;-77
2022/01/29 04:28:33;;;;;;;800.22;404.92;;;;;;;;;;4980560;28;20115;-77
2022/01/29 04:31:06;;;;;;;796.53;404.58;;;;;;;;;;4969865;28;20173;-77
2022/01/29 04:33:32;;;;;;;794.42;404.45;;;;;;;;;;4973434;28;20034;-77
2022/01/29 04:35:59;;;;;;;798.45;416.52;;;;;;;;;;4946737;29;20412;-77
2022/01/29 04:38:25;;;;;;;798.25;415.75;;;;;;;;;;4956725;28;20434;-77
2022/01/29 04:40:52;;;;;;;795.60;408.35;;;;;;;;;;4976799;28;20101;-78
2022/01/29 04:43:23;;;;;;;799.05;413.00;;;;;;;;;;4951505;28;20077;-76
2022/01/29 04:45:51;;;;;;;801.00;421.25;;;;;;;;;;4972730;28;20062;-77
2022/01/29 04:48:20;;;;;;;798.88;412.60;;;;;;;;;;4974396;28;20157;-77
2022/01/29 04:50:55;;;;;;;797.92;421.85;;;;;;;;;;4963083;28;20119;-77
2022/01/29 04:53:21;;;;;;;802.05;419.20;;;;;;;;;;4953038;28;20031;-78
2022/01/29 04:55:47;;;;;;;801.22;425.08;;;;;;;;;;4948868;28;20043;-77
2022/01/29 04:58:13;;;;;;;797.90;422.30;;;;;;;;;;4964762;28;20021;-79
2022/01/29 05:00:41;;;;;;;800.75;423.02;;;;;;;;;;5002644;28;20036;-77
2022/01/29 05:03:08;;;;;;;801.45;426.73;;;;;;;;;;4985330;28;20063;-78
2022/01/29 05:05:34;;;;;;;798.45;418.58;;;;;;;;;;4991772;28;20709;-77
2022/01/29 05:08:01;;;;;;;804.65;430.45;;;;;;;;;;4958078;28;20506;-78
2022/01/29 05:10:27;;;;;;;803.50;435.95;;;;;;;;;;4957298;28;20050;-78
2022/01/29 05:13:08;;;;;;;800.53;423.60;;;;;;;;;;4969972;28;20050;-78
2022/01/29 05:15:57;;;;;;;802.22;431.45;;;;;;;;;;4965437;28;20032;-77
2022/01/29 05:27:02;;;;;;;803.97;430.92;;;;;;;;;;4963041;28;21532;-77
2022/01/29 05:29:31;;;;;;;803.45;433.23;;;;;;;;;;4985274;28;20031;-77
2022/01/29 05:32:17;;;;;;;805.08;437.00;;;;;;;;;;4952314;28;20522;-78
2022/01/29 05:34:43;;;;;;;806.63;441.77;;;;;;;;;;4973713;28;20038;-77
2022/01/29 05:37:09;;;;;;;809.42;443.05;;;;;;;;;;4975106;28;20053;-77
2022/01/29 05:39:37;;;;;;;807.53;449.55;;;;;;;;;;4965588;28;20027;-78
2022/01/29 05:42:05;;;;;;;807.15;444.63;;;;;;;;;;4993928;28;20029;-77
2022/01/29 05:44:34;;;;;;;806.25;442.90;;;;;;;;;;4963123;28;20035;-78
2022/01/29 05:47:00;;;;;;;810.30;449.38;;;;;;;;;;4957049;28;20062;-78
2022/01/29 05:49:26;;;;;;;802.10;434.85;;;;;;;;;;4967266;28;20380;-78
2022/01/29 05:51:56;;;;;;;806.75;447.02;;;;;;;;;;4961903;28;20033;-77
2022/01/29 05:54:35;;;;;;;805.33;438.58;;;;;;;;;;4972300;28;20082;-77
2022/01/29 05:57:01;;;;;;;804.25;437.67;;;;;;;;;;5006956;28;20506;-79
2022/01/29 05:59:27;;;;;;;810.78;453.10;;;;;;;;;;4982632;28;20106;-78
2022/01/29 06:02:01;;;;;;;809.45;451.65;;;;;;;;;;4979786;28;20027;-77
2022/01/29 06:04:27;;;;;;;806.30;441.20;;;;;;;;;;4953540;28;20078;-77
2022/01/29 06:06:53;;;;;;;810.88;452.55;;;;;;;;;;4980750;28;20458;-77
2022/01/29 06:09:19;;;;;;;806.05;452.13;;;;;;;;;;4967160;28;20035;-77
2022/01/29 06:11:45;;;;;;;807.28;447.35;;;;;;;;;;4957507;28;20038;-78
2022/01/29 06:14:12;;;;;;;807.92;444.30;;;;;;;;;;4957002;28;20577;-78
2022/01/29 06:16:39;;;;;;;812.42;454.60;;;;;;;;;;4955644;28;20035;-78
2022/01/29 06:19:05;;;;;;;809.53;447.60;;;;;;;;;;4985888;28;20028;-78
2022/01/29 06:21:31;;;;;;;808.75;444.70;;;;;;;;;;4972876;28;20037;-78
2022/01/29 06:24:00;;;;;;;806.83;449.13;;;;;;;;;;4962856;28;20031;-77
2022/01/29 06:26:28;;;;;;;813.60;459.35;;;;;;;;;;4959955;28;20123;-78
2022/01/29 06:28:59;;;;;;;809.35;454.55;;;;;;;;;;4973993;28;20511;-77
2022/01/29 06:31:25;;;;;;;;;;;;;;;;;;4966907;28;20028;-78
2022/01/29 06:33:54;;;;;;;803.40;422.25;;;;;;;;;;4946887;29;19922;-77
2022/01/29 06:36:20;;;;;;;804.13;429.90;;;;;;;;;;4971657;28;20035;-78
2022/01/29 06:38:46;;;;;;;813.03;454.15;;;;;;;;;;4970897;28;20390;-78
2022/01/29 06:41:12;;;;;;;807.83;446.10;;;;;;;;;;5003671;28;20030;-78
2022/01/29 06:43:38;;;;;;;811.45;457.35;;;;;;;;;;4968799;28;20033;-78
2022/01/29 06:46:04;;;;;;;812.03;453.70;;;;;;;;;;4972302;28;20035;-78
2022/01/29 06:48:30;;;;;;;810.58;457.67;;;;;;;;;;4963180;28;20479;-77
2022/01/29 06:50:57;;;;;;;807.22;441.65;;;;;;;;;;4975592;28;20043;-78
2022/01/29 06:53:23;;;;;;;812.22;458.85;;;;;;;;;;4962723;28;20037;-78
2022/01/29 06:56:09;;;;;;;810.80;450.23;;;;;;;;;;4961082;28;20100;-77
2022/01/29 06:58:35;;;;;;;811.45;452.52;;;;;;;;;;4960263;28;20075;-77
2022/01/29 07:01:02;;;;;;;806.67;444.83;;;;;;;;;;4952971;28;20086;-77
2022/01/29 07:03:28;;;;;;;805.88;443.88;;;;;;;;;;4980701;28;20041;-78
2022/01/29 07:05:55;;;;;;;807.97;448.67;;;;;;;;;;4952372;28;20543;-77
2022/01/29 07:08:24;;;;;;;807.28;451.33;;;;;;;;;;4972947;28;20046;-78
2022/01/29 07:10:52;;;;;;;806.50;447.45;;;;;;;;;;4958390;28;20027;-77
2022/01/29 07:13:22;;;;;;;805.30;438.55;;;;;;;;;;4969046;28;20079;-78
2022/01/29 07:15:52;;;;;;;812.13;451.60;;;;;;;;;;4965617;28;20029;-77
2022/01/29 07:18:19;;;;;;;807.08;451.20;;;;;;;;;;4986091;28;20104;-78
2022/01/29 07:21:00;;;;;;;808.35;452.60;;;;;;;;;;4989126;28;20028;-78
2022/01/29 07:23:26;;;;;;;809.20;446.58;;;;;;;;;;4966089;28;20386;-78
2022/01/29 07:25:52;;;;;;;809.97;459.75;;;;;;;;;;4966000;28;20642;-78
2022/01/29 07:28:18;;;;;;;807.42;449.45;;;;;;;;;;4979161;28;20031;-77
2022/01/29 07:30:45;;;;;;;808.85;459.60;;;;;;;;;;4971155;28;20040;-78
2022/01/29 07:33:11;;;;;;;811.15;456.10;;;;;;;;;;4989738;28;20474;-78
2022/01/29 07:35:37;;;;;;;811.65;462.70;;;;;;;;;;4987168;28;20206;-79
2022/01/29 07:38:03;;;;;;;809.33;465.30;;;;;;;;;;4977117;28;20118;-79
2022/01/29 07:40:29;;;;;;;819.42;466.65;;;;;;;;;;4979090;28;20457;-78
2022/01/29 07:42:56;;;;;;;810.67;463.95;;;;;;;;;;4973813;28;20039;-77
2022/01/29 07:45:23;;;;;;;810.10;458.63;;;;;;;;;;4955326;28;20039;-78
2022/01/29 07:47:50;;;;;;;815.30;465.63;;;;;;;;;;4965997;28;20511;-78
2022/01/29 07:50:16;;;;;;;808.05;461.08;;;;;;;;;;4969629;28;20524;-78
2022/01/29 07:52:42;;;;;;;809.47;457.35;;;;;;;;;;4949998;28;20066;-78
2022/01/29 07:55:08;;;;;;;813.45;467.08;;;;;;;;;;4981433;28;20029;-78
2022/01/29 07:57:34;;;;;;;811.35;463.67;;;;;;;;;;4987424;28;20023;-77
2022/01/29 08:00:00;;;;;;;813.80;459.77;;;;;;;;;;4972546;28;20039;-78
2022/01/29 08:02:26;;;;;;;812.28;463.55;;;;;;;;;;4955470;28;20031;-79
2022/01/29 08:04:53;;;;;;;814.17;472.13;;;;;;;;;;4964827;28;20047;-78
2022/01/29 08:07:19;;;;;;;814.05;471.00;;;;;;;;;;4971444;28;20060;-78
2022/01/29 08:09:45;;;;;;;812.80;471.27;;;;;;;;;;5042462;28;20062;-78
2022/01/29 08:12:11;;;;;;;813.40;479.48;;;;;;;;;;4972936;28;20510;-77
2022/01/29 08:14:37;;;;;;;816.85;483.10;;;;;;;;;;4974015;28;20079;-77
2022/01/29 08:17:03;;;;;;;814.38;472.80;;;;;;;;;;4970317;28;20632;-78
2022/01/29 08:19:29;;;;;;;817.63;485.98;;;;;;;;;;4946053;28;20182;-78
2022/01/29 08:21:55;;;;;;;811.10;467.23;;;;;;;;;;4986165;28;20040;-78
2022/01/29 08:24:22;;;;;;;813.08;472.70;;;;;;;;;;4975407;28;20040;-77
2022/01/29 08:26:48;;;;;;;814.25;469.10;;;;;;;;;;5022594;28;20095;-77
2022/01/29 08:29:20;;;;;;;814.08;471.58;;;;;;;;;;4954254;28;20062;-78
2022/01/29 08:31:46;;;;;;;813.42;473.60;;;;;;;;;;4962630;28;20126;-78
2022/01/29 08:34:14;;;;;;;816.13;482.75;;;;;;;;;;4976341;28;20493;-78
2022/01/29 08:36:41;;;;;;;818.33;475.80;;;;;;;;;;4947274;28;20398;-79
2022/01/29 08:39:08;;;;;;;814.70;474.23;;;;;;;;;;4958229;28;20488;-77
2022/01/29 08:41:34;;;;;;;812.60;470.35;;;;;;;;;;4943182;29;20039;-77
2022/01/29 08:44:00;;;;;;;816.28;473.35;;;;;;;;;;4967709;28;20501;-78
2022/01/29 08:46:31;;;;;;;810.50;460.95;;;;;;;;;;4947985;28;20049;-77
2022/01/29 08:48:57;;;;;;;812.33;464.00;;;;;;;;;;4969788;28;20047;-77
2022/01/29 08:51:23;;;;;;;812.50;464.92;;;;;;;;;;4965031;28;20035;-78
2022/01/29 08:53:50;;;;;;;813.58;467.38;;;;;;;;;;4962917;28;20045;-78
2022/01/29 08:56:16;;;;;;;816.55;475.75;;;;;;;;;;4953235;28;20118;-78
2022/01/29 08:58:43;;;;;;;812.13;465.85;;;;;;;;;;5026739;28;20033;-78
2022/01/29 09:01:09;;;;;;;816.45;479.25;;;;;;;;;;5027755;28;20033;-78
2022/01/29 09:03:36;;;;;;;812.05;474.33;;;;;;;;;;5005675;28;20128;-77
2022/01/29 09:06:02;;;;;;;815.67;471.48;;;;;;;;;;5019327;28;20064;-79
2022/01/29 09:08:29;;;;;;;810.72;467.20;;;;;;;;;;5023143;28;20069;-78
2022/01/29 09:10:57;;;;;;;813.90;473.77;;;;;;;;;;5021581;28;20086;-78
2022/01/29 09:13:24;;;;;;;813.63;478.50;;;;;;;;;;5025210;28;20048;-78
2022/01/29 09:15:50;;;;;;;811.75;476.48;;;;;;;;;;5020407;28;20042;-78
2022/01/29 09:18:15;;;;;;;811.70;471.90;;;;;;;;;;5022914;28;20041;-79
2022/01/29 09:20:49;;;;;;;817.25;477.15;;;;;;;;;;5024420;28;20314;-77
2022/01/29 09:23:16;;;;;;;813.35;475.77;;;;;;;;;;5017337;28;20595;-78
2022/01/29 09:25:42;;;;;;;818.38;480.98;;;;;;;;;;5020116;28;20478;-78
2022/01/29 09:28:11;;;;;;;819.72;485.50;;;;;;;;;;5023983;28;20385;-78
2022/01/29 09:30:38;;;;;;;813.97;478.05;;;;;;;;;;4979377;28;20058;-79
2022/01/29 09:33:06;;;;;;;816.50;475.95;;;;;;;;;;4945332;28;20048;-78
2022/01/29 09:35:32;;;;;;;817.53;485.02;;;;;;;;;;4992337;28;20455;-78
2022/01/29 09:37:58;;;;;;;814.72;481.13;;;;;;;;;;4944995;28;20102;-78
2022/01/29 09:40:27;;;;;;;813.80;480.23;;;;;;;;;;4967640;28;20031;-78
2022/01/29 09:42:53;;;;;;;812.78;478.35;;;;;;;;;;4942078;28;21119;-78
2022/01/29 09:45:21;;;;;;;813.97;476.70;;;;;;;;;;5028640;28;20036;-77
2022/01/29 09:47:48;;;;;;;816.70;487.08;;;;;;;;;;4943495;28;20070;-78
2022/01/29 09:50:14;;;;;;;818.95;490.80;;;;;;;;;;4942727;28;20103;-79
2022/01/29 09:52:40;;;;;;;816.60;479.25;;;;;;;;;;4955910;28;20062;-77
2022/01/29 09:55:07;;;;;;;815.90;484.77;;;;;;;;;;4965575;28;20043;-79
2022/01/29 09:57:34;;;;;;;817.08;481.77;;;;;;;;;;4946199;28;20296;-77
2022/01/29 10:00:00;;;;;;;812.13;477.73;;;;;;;;;;4963628;28;20036;-78
2022/01/29 10:02:26;;;;;;;815.58;488.52;;;;;;;;;;4965418;28;20031;-78
2022/01/29 10:04:56;;;;;;;815.92;483.00;;;;;;;;;;4979567;28;20383;-81
2022/01/29 10:07:25;;;;;;;811.92;469.60;;;;;;;;;;4964063;28;20036;-79
2022/01/29 10:09:51;;;;;;;817.35;483.90;;;;;;;;;;4980103;28;20293;-79
2022/01/29 10:12:26;;;;;;;820.38;494.63;;;;;;;;;;4943970;28;20023;-80
2022/01/29 10:14:53;;;;;;;821.70;496.40;;;;;;;;;;4969816;28;20132;-78
2022/01/29 10:17:41;;;;;;;817.78;486.48;;;;;;;;;;4965159;28;20118;-79
2022/01/29 10:20:11;;;;;;;817.78;487.60;;;;;;;;;;4958438;28;20028;-80
2022/01/29 10:22:38;;;;;;;823.25;492.88;;;;;;;;;;4955758;28;20411;-78
2022/01/29 10:25:05;;;;;;;823.70;502.92;;;;;;;;;;4963708;28;20041;-80
2022/01/29 10:27:31;;;;;;;818.55;494.67;;;;;;;;;;4943793;28;20032;-79
2022/01/29 10:30:00;;;;;;;819.25;494.60;;;;;;;;;;4958997;28;20536;-79
2022/01/29 10:32:28;;;;;;;823.58;506.40;;;;;;;;;;4978828;28;20031;-79
2022/01/29 10:34:55;;;;;;;822.30;509.85;;;;;;;;;;4970794;28;20465;-77
2022/01/29 10:37:25;;;;;;;823.33;502.33;;;;;;;;;;4955794;28;20390;-79
2022/01/29 10:39:52;;;;;;;822.15;500.90;;;;;;;;;;4943085;28;20419;-79
2022/01/29 10:42:21;;;;;;;821.17;501.23;;;;;;;;;;4944200;29;20075;-77
2022/01/29 10:44:48;;;;;;;821.90;504.55;;;;;;;;;;4955987;28;20035;-79
2022/01/29 10:47:14;;;;;;;819.97;499.63;;;;;;;;;;5010539;28;20434;-78
2022/01/29 10:49:48;;;;;;;823.47;509.85;;;;;;;;;;4937391;28;20364;-78
2022/01/29 10:52:16;;;;;;;822.95;510.27;;;;;;;;;;4941807;28;20066;-78
2022/01/29 10:54:43;;;;;;;819.97;500.55;;;;;;;;;;4950686;28;20039;-79
2022/01/29 10:57:10;;;;;;;824.25;516.50;;;;;;;;;;4945692;28;20034;-78
2022/01/29 10:59:38;;;;;;;824.95;512.03;;;;;;;;;;4939237;28;20045;-78
2022/01/29 11:02:07;;;;;;;826.58;521.60;;;;;;;;;;4944941;28;20518;-77
2022/01/29 11:04:35;;;;;;;821.83;508.13;;;;;;;;;;4973458;28;20097;-79
2022/01/29 11:07:05;;;;;;;826.70;527.42;;;;;;;;;;4944223;28;20020;-78
2022/01/29 11:09:32;;;;;;;824.22;517.88;;;;;;;;;;4948262;28;20023;-78
2022/01/29 11:11:59;;;;;;;823.80;524.75;;;;;;;;;;4961298;28;20093;-78
2022/01/29 11:14:25;;;;;;;829.50;533.25;;;;;;;;;;4983723;28;20038;-77
2022/01/29 11:16:52;;;;;;;826.92;530.45;;;;;;;;;;4976926;28;20470;-78
2022/01/29 11:19:18;;;;;;;823.45;518.50;;;;;;;;;;4940424;28;20027;-77
2022/01/29 11:21:47;;;;;;;827.55;523.67;;;;;;;;;;4948114;29;20084;-78
2022/01/29 11:24:13;;;;;;;831.78;520.90;;;;;;;;;;4947183;28;20368;-77
2022/01/29 11:26:41;;;;;;;827.13;528.22;;;;;;;;;;4945112;28;20031;-78
2022/01/29 11:29:27;;;;;;;827.88;530.58;;;;;;;;;;4957632;28;20019;-78
2022/01/29 11:32:12;;;;;;;824.67;526.13;;;;;;;;;;4948010;28;20085;-78
2022/01/29 11:34:59;;;;;;;827.67;537.72;;;;;;;;;;4943400;29;20569;-77
2022/01/29 11:37:43;;;;;;;822.10;524.92;;;;;;;;;;4959106;28;20545;-78
2022/01/29 11:40:20;;;;;;;818.33;511.85;;;;;;;;;;4947174;28;20029;-77
2022/01/29 11:43:05;;;;;;;823.20;526.20;;;;;;;;;;4946243;28;20039;-79
2022/01/29 11:45:35;;;;;;;820.83;521.28;;;;;;;;;;4948726;29;20015;-78
2022/01/29 11:48:01;;;;;;;825.33;528.47;;;;;;;;;;4949718;28;20102;-79
2022/01/29 11:50:44;;;;;;;825.35;539.15;;;;;;;;;;4966675;28;20035;-78
2022/01/29 11:53:10;;;;;;;821.38;525.28;;;;;;;;;;4968189;28;20031;-77
2022/01/29 11:55:41;;;;;;;821.58;529.10;;;;;;;;;;4940177;28;20300;-79
2022/01/29 11:58:15;;;;;;;825.75;541.50;;;;;;;;;;4949205;28;20036;-78
2022/01/29 12:00:41;;;;;;;819.55;525.80;;;;;;;;;;4947850;28;20380;-78
2022/01/29 12:03:08;;;;;;;829.70;549.42;;;;;;;;;;4948113;28;20066;-78
2022/01/29 12:05:52;;;;;;;829.15;551.30;;;;;;;;;;4967734;28;20201;-79
2022/01/29 12:08:20;;;;;;;825.60;536.72;;;;;;;;;;4950089;28;20060;-78
2022/01/29 12:10:54;;;;;;;827.20;546.47;;;;;;;;;;4949662;28;20046;-78
2022/01/29 12:13:21;;;;;;;831.38;556.03;;;;;;;;;;4948311;28;20027;-79
2022/01/29 12:15:47;;;;;;;826.45;543.05;;;;;;;;;;4956988;28;20425;-77
2022/01/29 12:18:25;;;;;;;832.45;559.30;;;;;;;;;;4945505;28;20405;-78
2022/01/29 12:20:52;;;;;;;831.03;554.47;;;;;;;;;;4945303;28;20102;-77
2022/01/29 12:23:18;;;;;;;823.90;534.60;;;;;;;;;;4949395;28;20487;-79
2022/01/29 12:25:51;;;;;;;829.80;552.25;;;;;;;;;;5030587;28;20129;-78
2022/01/29 12:28:17;;;;;;;829.22;550.97;;;;;;;;;;4951088;28;20043;-77
2022/01/29 12:30:44;;;;;;;831.17;555.83;;;;;;;;;;4952332;28;20058;-78
2022/01/29 12:33:12;;;;;;;829.25;550.97;;;;;;;;;;4942990;28;20251;-79
2022/01/29 12:35:43;;;;;;;827.83;548.47;;;;;;;;;;4961557;28;20033;-79
2022/01/29 12:38:12;;;;;;;826.97;543.40;;;;;;;;;;4954335;28;20027;-78
2022/01/29 12:40:40;;;;;;;829.35;550.10;;;;;;;;;;4943501;28;20058;-78
2022/01/29 12:43:23;;;;;;;828.30;553.90;;;;;;;;;;4945387;28;20039;-78
2022/01/29 12:45:50;;;;;;;822.58;535.97;;;;;;;;;;4939807;28;20392;-78
2022/01/29 12:48:17;;;;;;;827.80;546.15;;;;;;;;;;4947196;28;20110;-78
2022/01/29 12:50:44;;;;;;;831.75;565.80;;;;;;;;;;4946018;28;20054;-78
2022/01/29 12:53:20;;;;;;;828.67;555.35;;;;;;;;;;4960688;28;20489;-78
2022/01/29 12:56:03;;;;;;;827.33;545.25;;;;;;;;;;4945694;28;20028;-77
2022/01/29 12:58:30;;;;;;;827.78;544.33;;;;;;;;;;4942218;28;20031;-79
2022/01/29 13:01:10;;;;;;;831.47;560.80;;;;;;;;;;4946800;28;20031;-79
2022/01/29 13:03:38;;;;;;;830.78;551.40;;;;;;;;;;4944657;28;20085;-77
2022/01/29 13:06:11;;;;;;;835.58;560.72;;;;;;;;;;4997029;28;20028;-79
2022/01/29 13:08:38;;;;;;;829.25;550.38;;;;;;;;;;4939546;28;20613;-77
2022/01/29 13:11:19;;;;;;;829.83;555.65;;;;;;;;;;5000814;28;20054;-77
2022/01/29 13:13:45;;;;;;;828.90;546.65;;;;;;;;;;4982471;28;20035;-78
2022/01/29 13:16:11;;;;;;;827.13;544.20;;;;;;;;;;4960566;28;20082;-78
2022/01/29 13:18:37;;;;;;;831.78;558.05;;;;;;;;;;4973401;28;20068;-79
2022/01/29 13:21:03;;;;;;;828.85;547.50;;;;;;;;;;4957470;28;20035;-79
2022/01/29 13:23:37;;;;;;;830.40;549.35;;;;;;;;;;4959199;28;20118;-78
2022/01/29 13:26:16;;;;;;;834.40;563.55;;;;;;;;;;4979205;28;20423;-77
2022/01/29 13:28:47;;;;;;;831.22;552.42;;;;;;;;;;4981502;28;20066;-77
2022/01/29 13:31:13;;;;;;;832.67;559.85;;;;;;;;;;4963678;28;20046;-79
2022/01/29 13:33:39;;;;;;;832.45;556.50;;;;;;;;;;4968358;28;20123;-78
2022/01/29 13:36:05;;;;;;;828.33;546.85;;;;;;;;;;4958390;28;20027;-78
2022/01/29 13:38:38;;;;;;;831.20;554.50;;;;;;;;;;4957418;28;20031;-78
2022/01/29 13:41:05;;;;;;;830.03;546.72;;;;;;;;;;4983560;28;20081;-78
2022/01/29 13:43:34;;;;;;;826.67;543.15;;;;;;;;;;4962279;28;20513;-78
2022/01/29 13:46:01;;;;;;;828.30;551.33;;;;;;;;;;4971453;28;20104;-77
2022/01/29 13:48:40;;;;;;;829.13;547.50;;;;;;;;;;4986280;28;20039;-78
2022/01/29 13:51:06;;;;;;;825.50;534.95;;;;;;;;;;4990213;28;20032;-78
2022/01/29 13:53:46;;;;;;;832.17;551.92;;;;;;;;;;4965594;28;20063;-78
2022/01/29 13:56:15;;;;;;;830.10;544.20;;;;;;;;;;4993965;28;20216;-78
2022/01/29 13:58:48;;;;;;;824.30;532.35;;;;;;;;;;4972223;28;20425;-77
2022/01/29 14:01:15;;;;;;;826.53;534.97;;;;;;;;;;4979696;28;20024;-77
2022/01/29 14:03:52;;;;;;;829.88;542.75;;;;;;;;;;4986206;28;20058;-77
2022/01/29 14:06:43;;;;;;;826.75;532.85;;;;;;;;;;5002676;28;20029;-78
2022/01/29 14:09:17;;;;;;;830.97;547.63;;;;;;;;;;4960096;28;20127;-78
2022/01/29 14:11:52;;;;;;;833.28;554.20;;;;;;;;;;4967817;28;20362;-78